createdAt,value
2019-05-20T00:00:31.961Z,2.50
2019-05-20T00:03:00.822Z,2.10
2019-05-20T00:05:29.787Z,1.87
2019-05-20T00:07:59.813Z,2.40
2019-05-20T00:10:28.953Z,1.97
2019-05-20T00:12:57.932Z,1.97
2019-05-20T00:15:26.801Z,2.13
2019-05-20T00:17:56.660Z,1.73
2019-05-20T00:20:25.521Z,2.17
2019-05-20T00:22:54.442Z,1.80
2019-05-20T00:25:23.378Z,1.50
2019-05-20T00:27:52.304Z,1.87
2019-05-20T00:30:21.309Z,1.50
2019-05-20T00:32:50.193Z,1.60
2019-05-20T00:35:19.215Z,1.60
2019-05-20T00:37:48.229Z,2.03
2019-05-20T00:40:17.688Z,1.60
2019-05-20T00:42:46.706Z,2.03
2019-05-20T00:45:17.219Z,1.70
2019-05-20T00:47:46.153Z,1.90
2019-05-20T00:50:15.134Z,1.87
2019-05-20T00:52:44.242Z,2.00
2019-05-20T00:55:25.564Z,1.40
2019-05-20T00:57:54.443Z,1.60
2019-05-20T01:00:24.294Z,1.60
2019-05-20T01:02:56.822Z,1.50
2019-05-20T01:05:24.330Z,1.50
2019-05-20T01:07:53.347Z,1.47
2019-05-20T01:10:22.353Z,1.43
2019-05-20T01:12:51.411Z,1.60
2019-05-20T01:15:20.410Z,1.50
2019-05-20T01:17:49.321Z,1.30
2019-05-20T01:20:19.199Z,1.60
2019-05-20T01:22:48.053Z,1.40
2019-05-20T01:25:17.966Z,1.87
2019-05-20T01:27:46.848Z,1.50
2019-05-20T01:30:16.202Z,1.50
2019-05-20T01:32:45.100Z,1.40
2019-05-20T01:35:14.092Z,1.50
2019-05-20T01:37:42.949Z,1.40
2019-05-20T01:40:12.175Z,1.50
2019-05-20T01:42:41.117Z,1.67
2019-05-20T01:45:10.482Z,1.40
2019-05-20T01:47:39.398Z,1.60
2019-05-20T01:50:09.008Z,1.77
2019-05-20T01:52:38.008Z,2.27
2019-05-20T01:55:07.041Z,2.27
2019-05-20T01:57:36.054Z,2.03
2019-05-20T02:00:08.096Z,2.47
2019-05-20T02:02:37.081Z,2.60
2019-05-20T02:05:06.757Z,2.10
2019-05-20T02:07:35.717Z,2.60
2019-05-20T02:10:05.148Z,2.23
2019-05-20T02:12:35.041Z,2.50
2019-05-20T02:15:10.177Z,1.87
2019-05-20T02:17:39.101Z,2.20
2019-05-20T02:20:08.413Z,2.90
2019-05-20T02:22:37.391Z,2.20
2019-05-20T02:25:06.536Z,2.30
2019-05-20T02:27:35.449Z,2.30
2019-05-20T02:30:04.708Z,2.30
2019-05-20T02:32:33.585Z,2.30
2019-05-20T02:35:02.533Z,2.60
2019-05-20T02:37:31.482Z,2.50
2019-05-20T02:40:00.409Z,2.80
2019-05-20T02:42:29.493Z,2.53
2019-05-20T02:44:58.329Z,3.37
2019-05-20T02:47:27.238Z,3.10
2019-05-20T02:49:56.125Z,2.60
2019-05-20T02:52:25.010Z,2.80
2019-05-20T02:54:53.978Z,2.70
2019-05-20T02:57:22.937Z,3.00
2019-05-20T02:59:51.862Z,3.37
2019-05-20T03:02:20.782Z,2.73
2019-05-20T03:04:49.820Z,2.70
2019-05-20T03:07:18.818Z,2.90
2019-05-20T03:09:47.681Z,3.43
2019-05-20T03:12:16.610Z,2.97
2019-05-20T03:14:45.556Z,3.03
2019-05-20T03:17:15.440Z,3.57
2019-05-20T03:19:44.336Z,3.13
2019-05-20T03:22:13.391Z,3.00
2019-05-20T03:24:42.345Z,3.27
2019-05-20T03:27:11.286Z,3.10
2019-05-20T03:29:40.606Z,3.03
2019-05-20T03:32:09.545Z,3.10
2019-05-20T03:34:47.737Z,3.50
2019-05-20T03:37:09.182Z,3.40
2019-05-20T03:39:38.079Z,3.70
2019-05-20T03:42:07.046Z,3.57
2019-05-20T03:44:35.857Z,3.67
2019-05-20T03:47:04.744Z,3.43
2019-05-20T03:49:33.629Z,4.33
2019-05-20T03:52:02.504Z,4.63
2019-05-20T03:54:31.388Z,4.63
2019-05-20T03:57:00.377Z,4.03
2019-05-20T03:59:29.191Z,4.80
2019-05-20T04:01:58.088Z,4.77
2019-05-20T04:04:26.934Z,4.97
2019-05-20T04:06:55.892Z,4.87
2019-05-20T04:09:24.788Z,5.10
2019-05-20T04:11:53.730Z,5.13
2019-05-20T04:14:22.585Z,6.07
2019-05-20T04:16:52.321Z,5.20
2019-05-20T04:19:21.204Z,5.10
2019-05-20T04:21:51.191Z,5.30
2019-05-20T04:24:20.229Z,5.30
2019-05-20T04:26:52.533Z,5.57
2019-05-20T04:29:22.135Z,5.67
2019-05-20T04:31:51.200Z,5.90
2019-05-20T04:34:20.199Z,6.27
2019-05-20T04:36:49.226Z,5.97
2019-05-20T04:39:18.123Z,6.90
2019-05-20T04:41:47.125Z,7.57
2019-05-20T04:44:17.023Z,6.87
2019-05-20T04:46:46.025Z,7.67
2019-05-20T04:49:14.967Z,7.40
2019-05-20T04:51:49.858Z,7.30
2019-05-20T04:54:19.837Z,8.20
2019-05-20T04:56:51.758Z,7.93
2019-05-20T04:59:53.990Z,9.67
2019-05-20T05:06:41.499Z,8.60
2019-05-20T05:11:29.289Z,9.10
2019-05-20T05:17:16.875Z,8.83
2019-05-20T05:20:58.061Z,9.30
2019-05-20T05:23:39.988Z,9.50
2019-05-20T05:26:09.181Z,9.20
2019-05-20T05:28:38.144Z,9.70
2019-05-20T05:31:11.754Z,8.90
2019-05-20T05:33:40.861Z,9.40
2019-05-20T05:36:14.960Z,9.63
2019-05-20T05:38:43.985Z,10.07
2019-05-20T05:41:13.949Z,9.70
2019-05-20T05:43:45.880Z,10.13
2019-05-20T05:46:14.821Z,10.27
2019-05-20T05:48:43.846Z,9.90
2019-05-20T05:51:12.809Z,11.50
2019-05-20T05:53:41.985Z,10.10
2019-05-20T05:56:10.960Z,12.07
2019-05-20T05:58:40.082Z,11.00
2019-05-20T06:01:09.044Z,11.20
2019-05-20T06:03:38.092Z,10.60
2019-05-20T06:06:12.610Z,11.20
2019-05-20T06:08:38.223Z,10.10
2019-05-20T06:11:07.395Z,10.77
2019-05-20T06:13:36.317Z,11.07
2019-05-20T06:16:05.327Z,11.40
2019-05-20T06:18:34.354Z,10.70
2019-05-20T06:21:03.340Z,11.87
2019-05-20T06:23:32.474Z,11.97
2019-05-20T06:26:01.608Z,11.77
2019-05-20T06:28:30.674Z,11.77
2019-05-20T06:30:59.581Z,10.70
2019-05-20T06:33:28.605Z,10.80
2019-05-20T06:35:57.673Z,11.10
2019-05-20T06:38:46.024Z,12.00
2019-05-20T06:41:15.727Z,9.30
2019-05-20T06:43:44.711Z,10.60
2019-05-20T06:46:13.697Z,10.83
2019-05-20T06:48:42.687Z,10.70
2019-05-20T06:51:11.602Z,10.00
2019-05-20T06:53:40.438Z,10.60
2019-05-20T06:56:09.378Z,12.30
2019-05-20T06:58:38.303Z,11.43
2019-05-20T07:01:07.245Z,10.97
2019-05-20T07:03:36.361Z,11.20
2019-05-20T07:06:05.390Z,10.80
2019-05-20T07:08:34.222Z,10.13
2019-05-20T07:11:03.145Z,10.60
2019-05-20T07:13:32.060Z,10.20
2019-05-20T07:16:01.049Z,9.90
2019-05-20T07:18:29.886Z,9.70
2019-05-20T07:20:58.736Z,10.00
2019-05-20T07:23:46.873Z,11.00
2019-05-20T07:26:15.769Z,10.40
2019-05-20T07:28:44.774Z,11.83
2019-05-20T07:31:13.807Z,11.60
2019-05-20T07:33:42.696Z,10.40
2019-05-20T07:36:11.623Z,11.60
2019-05-20T07:38:40.640Z,12.10
2019-05-20T07:41:09.538Z,11.60
2019-05-20T07:43:38.479Z,12.00
2019-05-20T07:46:08.667Z,13.23
2019-05-20T07:48:38.384Z,11.50
2019-05-20T07:51:08.831Z,11.90
2019-05-20T07:53:37.961Z,11.43
2019-05-20T07:56:12.525Z,11.83
2019-05-20T07:58:45.026Z,13.00
2019-05-20T08:01:13.989Z,11.67
2019-05-20T08:03:42.901Z,13.10
2019-05-20T08:06:12.019Z,12.27
2019-05-20T08:08:41.004Z,13.97
2019-05-20T08:11:09.996Z,13.27
2019-05-20T08:13:38.979Z,14.17
2019-05-20T08:16:07.969Z,13.17
2019-05-20T08:18:36.965Z,14.07
2019-05-20T08:21:05.970Z,13.43
2019-05-20T08:23:34.897Z,15.17
2019-05-20T08:26:03.938Z,14.03
2019-05-20T08:28:33.325Z,15.13
2019-05-20T08:31:02.273Z,16.60
2019-05-20T08:33:31.350Z,15.90
2019-05-20T08:36:00.246Z,15.90
2019-05-20T08:38:29.254Z,17.57
2019-05-20T08:40:58.233Z,15.40
2019-05-20T08:43:27.152Z,17.87
2019-05-20T08:45:56.137Z,17.40
2019-05-20T08:48:25.058Z,16.23
2019-05-20T08:50:53.956Z,16.97
2019-05-20T08:53:22.954Z,16.73
2019-05-20T08:55:51.816Z,16.87
2019-05-20T08:58:20.826Z,15.57
2019-05-20T09:00:49.733Z,16.63
2019-05-20T09:03:18.670Z,15.20
2019-05-20T09:05:47.576Z,16.27
2019-05-20T09:08:16.518Z,15.57
2019-05-20T09:10:45.437Z,15.27
2019-05-20T09:13:14.369Z,16.30
2019-05-20T09:15:45.455Z,16.23
2019-05-20T09:18:14.091Z,15.17
2019-05-20T09:20:43.162Z,15.43
2019-05-20T09:23:12.176Z,14.53
2019-05-20T09:25:41.160Z,16.23
2019-05-20T09:28:10.153Z,15.80
2019-05-20T09:30:39.159Z,15.47
2019-05-20T09:33:08.145Z,14.93
2019-05-20T09:35:37.145Z,14.67
2019-05-20T09:38:19.584Z,14.23
2019-05-20T09:40:39.041Z,16.50
2019-05-20T09:43:08.717Z,16.27
2019-05-20T09:45:37.746Z,16.40
2019-05-20T09:48:07.322Z,14.80
2019-05-20T09:50:36.349Z,15.50
2019-05-20T09:53:07.031Z,16.40
2019-05-20T09:55:36.385Z,16.47
2019-05-20T09:58:05.822Z,13.77
2019-05-20T10:00:34.815Z,15.60
2019-05-20T10:03:04.031Z,16.33
2019-05-20T10:05:33.106Z,15.63
2019-05-20T10:08:02.118Z,15.40
2019-05-20T10:10:31.182Z,16.40
2019-05-20T10:13:00.218Z,16.03
2019-05-20T10:15:29.344Z,16.40
2019-05-20T10:17:58.367Z,16.77
2019-05-20T10:20:27.302Z,17.33
2019-05-20T10:22:56.773Z,17.13
2019-05-20T10:25:25.783Z,17.20
2019-05-20T10:27:57.590Z,19.57
2019-05-20T10:30:25.716Z,17.00
2019-05-20T10:32:54.590Z,16.53
2019-05-20T10:35:23.578Z,17.27
2019-05-20T10:37:53.546Z,18.33
2019-05-20T10:40:22.538Z,19.47
2019-05-20T10:42:51.464Z,18.77
2019-05-20T10:45:20.548Z,18.70
2019-05-20T10:47:49.593Z,18.47
2019-05-20T10:50:18.614Z,18.17
2019-05-20T10:52:47.443Z,17.90
2019-05-20T10:55:16.861Z,18.60
2019-05-20T10:57:45.814Z,19.33
2019-05-20T11:00:15.136Z,20.60
2019-05-20T11:02:43.993Z,19.93
2019-05-20T11:05:13.075Z,21.23
2019-05-20T11:07:42.080Z,20.43
2019-05-20T11:10:11.526Z,21.67
2019-05-20T11:12:40.431Z,22.07
2019-05-20T11:15:09.605Z,21.90
2019-05-20T11:17:38.422Z,21.40
2019-05-20T11:20:07.651Z,22.57
2019-05-20T11:22:36.630Z,20.80
2019-05-20T11:25:06.852Z,21.07
2019-05-20T11:27:35.890Z,21.30
2019-05-20T11:30:06.041Z,20.90
2019-05-20T11:32:35.134Z,22.00
2019-05-20T11:35:04.273Z,20.50
2019-05-20T11:37:33.414Z,22.43
2019-05-20T11:40:02.884Z,22.60
2019-05-20T11:42:32.358Z,22.20
2019-05-20T11:45:01.278Z,22.20
2019-05-20T11:47:30.517Z,20.40
2019-05-20T11:49:59.450Z,22.90
2019-05-20T11:52:29.521Z,22.67
2019-05-20T11:54:58.462Z,21.47
2019-05-20T11:57:27.486Z,24.03
2019-05-20T11:59:56.353Z,22.90
2019-05-20T12:02:27.654Z,23.50
2019-05-20T12:04:56.760Z,24.90
2019-05-20T12:07:25.783Z,22.70
2019-05-20T12:09:54.848Z,23.67
2019-05-20T12:12:23.844Z,24.77
2019-05-20T12:14:52.751Z,24.60
2019-05-20T12:17:21.641Z,25.10
2019-05-20T12:19:50.641Z,22.60
2019-05-20T12:22:20.660Z,23.57
2019-05-20T12:24:51.746Z,24.40
2019-05-20T12:27:20.432Z,23.13
2019-05-20T12:29:49.345Z,25.60
2019-05-20T12:32:18.300Z,26.07
2019-05-20T12:34:47.231Z,27.07
2019-05-20T12:37:21.947Z,26.53
2019-05-20T12:40:05.791Z,24.10
2019-05-20T12:42:21.581Z,26.20
2019-05-20T12:44:50.509Z,26.30
2019-05-20T12:47:19.398Z,25.00
2019-05-20T12:49:48.243Z,24.67
2019-05-20T12:52:17.070Z,25.57
2019-05-20T12:54:45.899Z,24.80
2019-05-20T12:57:14.734Z,22.87
2019-05-20T12:59:43.557Z,23.50
2019-05-20T13:02:17.066Z,24.70
2019-05-20T13:04:42.946Z,24.83
2019-05-20T13:07:11.799Z,24.00
2019-05-20T13:09:40.653Z,24.63
2019-05-20T13:12:09.642Z,24.43
2019-05-20T13:14:38.544Z,24.10
2019-05-20T13:17:07.477Z,25.13
2019-05-20T13:19:36.522Z,24.40
2019-05-20T13:22:07.949Z,25.70
2019-05-20T13:24:37.516Z,23.27
2019-05-20T13:27:06.460Z,22.97
2019-05-20T13:29:35.285Z,23.83
2019-05-20T13:32:04.776Z,22.97
2019-05-20T13:34:33.711Z,25.00
2019-05-20T13:37:02.987Z,23.87
2019-05-20T13:39:31.967Z,23.00
2019-05-20T13:42:00.994Z,25.53
2019-05-20T13:44:29.859Z,25.13
2019-05-20T13:46:58.726Z,23.90
2019-05-20T13:49:27.748Z,24.60
2019-05-20T13:51:56.565Z,23.77
2019-05-20T13:54:25.537Z,23.63
2019-05-20T13:56:54.401Z,22.70
2019-05-20T13:59:23.415Z,21.87
2019-05-20T14:01:53.623Z,23.47
2019-05-20T14:04:22.659Z,24.60
2019-05-20T14:06:51.519Z,24.50
2019-05-20T14:09:20.469Z,22.07
2019-05-20T14:11:49.358Z,22.33
2019-05-20T14:14:18.223Z,22.90
2019-05-20T14:16:47.213Z,23.63
2019-05-20T14:19:16.117Z,23.23
2019-05-20T14:21:44.989Z,23.70
2019-05-20T14:24:13.902Z,22.30
2019-05-20T14:26:42.813Z,22.13
2019-05-20T14:29:11.816Z,24.80
2019-05-20T14:31:40.749Z,23.33
2019-05-20T14:34:09.697Z,25.50
2019-05-20T14:36:40.326Z,25.17
2019-05-20T14:39:09.269Z,24.57
2019-05-20T14:41:39.187Z,27.40
2019-05-20T14:44:08.106Z,25.47
2019-05-20T14:46:37.946Z,27.43
2019-05-20T14:49:06.983Z,28.30
2019-05-20T14:51:35.840Z,30.40
2019-05-20T14:54:04.748Z,29.00
2019-05-20T14:56:33.550Z,26.03
2019-05-20T14:59:02.574Z,27.83
2019-05-20T15:01:31.573Z,27.43
2019-05-20T15:04:00.493Z,26.40
2019-05-20T15:06:29.509Z,28.87
2019-05-20T15:08:58.431Z,26.07
2019-05-20T15:11:37.837Z,27.27
2019-05-20T15:14:00.250Z,25.50
2019-05-20T15:16:29.891Z,24.93
2019-05-20T15:18:58.761Z,24.37
2019-05-20T15:21:29.549Z,23.80
2019-05-20T15:23:58.417Z,24.67
2019-05-20T15:26:27.391Z,22.80
2019-05-20T15:28:56.263Z,23.37
2019-05-20T15:31:25.196Z,25.00
2019-05-20T15:33:57.355Z,26.40
2019-05-20T15:36:26.269Z,22.73
2019-05-20T15:38:55.154Z,25.37
2019-05-20T15:41:24.136Z,24.77
2019-05-20T15:43:53.057Z,26.33
2019-05-20T15:46:22.057Z,24.40
2019-05-20T15:48:50.994Z,24.80
2019-05-20T15:51:19.843Z,25.00
2019-05-20T15:53:49.019Z,26.13
2019-05-20T15:56:18.065Z,27.33
2019-05-20T15:58:46.923Z,27.50
2019-05-20T16:01:15.771Z,27.70
2019-05-20T16:03:44.682Z,28.27
2019-05-20T16:06:13.577Z,30.20
2019-05-20T16:08:43.497Z,25.77
2019-05-20T16:11:18.423Z,29.60
2019-05-20T16:13:47.335Z,28.20
2019-05-20T16:16:17.290Z,30.83
2019-05-20T16:18:46.291Z,29.07
2019-05-20T16:21:15.225Z,31.53
2019-05-20T16:23:44.153Z,32.47
2019-05-20T16:26:13.128Z,28.70
2019-05-20T16:28:41.974Z,29.30
2019-05-20T16:31:10.968Z,29.53
2019-05-20T16:33:39.877Z,29.30
2019-05-20T16:36:08.813Z,30.17
2019-05-20T16:38:37.759Z,33.90
2019-05-20T16:41:06.736Z,29.10
2019-05-20T16:43:35.585Z,32.27
2019-05-20T16:46:04.569Z,32.23
2019-05-20T16:48:33.478Z,32.60
2019-05-20T16:51:02.445Z,30.10
2019-05-20T16:53:31.373Z,30.07
2019-05-20T16:56:00.274Z,32.20
2019-05-20T16:58:29.193Z,29.83
2019-05-20T17:00:58.126Z,30.37
2019-05-20T17:03:27.115Z,31.50
2019-05-20T17:05:56.015Z,29.20
2019-05-20T17:08:24.961Z,27.53
2019-05-20T17:10:55.899Z,26.60
2019-05-20T17:13:24.718Z,28.00
2019-05-20T17:15:53.631Z,25.53
2019-05-20T17:18:22.601Z,27.60
2019-05-20T17:20:52.424Z,25.80
2019-05-20T17:23:22.411Z,25.93
2019-05-20T17:25:51.340Z,24.60
2019-05-20T17:28:20.598Z,24.60
2019-05-20T17:30:49.513Z,27.63
2019-05-20T17:33:18.441Z,26.57
2019-05-20T17:35:47.333Z,27.90
2019-05-20T17:38:16.226Z,28.77
2019-05-20T17:40:45.061Z,27.83
2019-05-20T17:43:14.073Z,30.97
2019-05-20T17:45:42.976Z,31.07
2019-05-20T17:48:11.911Z,30.67
2019-05-20T17:50:40.917Z,31.40
2019-05-20T17:53:09.801Z,32.90
2019-05-20T17:55:38.798Z,32.37
2019-05-20T17:58:07.669Z,32.07
2019-05-20T18:00:36.646Z,31.00
2019-05-20T18:03:05.627Z,34.60
2019-05-20T18:05:34.637Z,35.53
2019-05-20T18:08:03.606Z,35.10
2019-05-20T18:10:33.521Z,34.27
2019-05-20T18:13:02.415Z,33.83
2019-05-20T18:15:31.400Z,34.60
2019-05-20T18:18:00.345Z,37.13
2019-05-20T18:20:30.278Z,36.90
2019-05-20T18:22:59.258Z,36.00
2019-05-20T18:25:28.173Z,34.40
2019-05-20T18:27:57.125Z,35.00
2019-05-20T18:30:26.053Z,35.77
2019-05-20T18:32:54.965Z,39.80
2019-05-20T18:35:23.960Z,41.53
2019-05-20T18:37:52.865Z,41.53
2019-05-20T18:40:21.934Z,42.13
2019-05-20T18:42:50.855Z,43.00
2019-05-20T18:45:19.853Z,44.77
2019-05-20T18:47:48.834Z,43.73
2019-05-20T18:50:18.804Z,45.63
2019-05-20T18:52:47.700Z,45.37
2019-05-20T18:55:16.707Z,43.83
2019-05-20T18:57:45.701Z,45.30
2019-05-20T19:00:16.631Z,46.40
2019-05-20T19:02:45.545Z,46.10
2019-05-20T19:05:15.039Z,45.63
2019-05-20T19:07:44.205Z,49.70
2019-05-20T19:10:13.745Z,45.30
2019-05-20T19:12:42.883Z,46.27
2019-05-20T19:15:12.827Z,49.43
2019-05-20T19:17:41.765Z,46.87
2019-05-20T19:20:10.840Z,46.23
2019-05-20T19:22:39.763Z,48.53
2019-05-20T19:25:13.710Z,45.27
2019-05-20T19:27:42.657Z,46.80
2019-05-20T19:30:12.117Z,49.60
2019-05-20T19:32:40.957Z,46.60
2019-05-20T19:35:11.133Z,45.93
2019-05-20T19:37:41.013Z,43.10
2019-05-20T19:40:10.648Z,47.13
2019-05-20T19:42:39.589Z,45.10
2019-05-20T19:45:09.219Z,45.93
2019-05-20T19:47:38.178Z,45.33
2019-05-20T19:50:07.480Z,46.40
2019-05-20T19:52:36.631Z,44.03
2019-05-20T19:55:06.119Z,47.43
2019-05-20T19:57:35.069Z,46.83
2019-05-20T20:00:04.627Z,48.37
2019-05-20T20:02:33.659Z,48.63
2019-05-20T20:05:02.724Z,46.87
2019-05-20T20:07:31.638Z,49.53
2019-05-20T20:10:00.589Z,48.03
2019-05-20T20:12:32.396Z,48.53
2019-05-20T20:15:01.420Z,50.03
2019-05-20T20:17:30.384Z,43.77
2019-05-20T20:19:59.383Z,46.37
2019-05-20T20:22:28.399Z,45.17
2019-05-20T20:24:57.288Z,48.83
2019-05-20T20:27:26.277Z,46.17
2019-05-20T20:29:55.169Z,44.07
2019-05-20T20:32:37.426Z,49.30
2019-05-20T20:34:54.881Z,40.10
2019-05-20T20:37:23.814Z,41.80
2019-05-20T20:39:52.737Z,44.17
2019-05-20T20:42:21.756Z,45.30
2019-05-20T20:44:50.780Z,46.23
2019-05-20T20:47:19.809Z,51.40
2019-05-20T20:49:48.772Z,45.23
2019-05-20T20:52:17.653Z,49.23
2019-05-20T20:54:46.560Z,47.50
2019-05-20T20:57:15.432Z,44.90
2019-05-20T20:59:44.472Z,46.30
2019-05-20T21:02:13.496Z,41.93
2019-05-20T21:04:43.273Z,41.60
2019-05-20T21:07:13.726Z,41.63
2019-05-20T21:09:42.692Z,44.93
2019-05-20T21:12:11.792Z,43.93
2019-05-20T21:14:41.729Z,43.43
2019-05-20T21:17:10.761Z,44.07
2019-05-20T21:19:39.719Z,42.00
2019-05-20T21:22:08.631Z,42.83
2019-05-20T21:24:37.719Z,42.03
2019-05-20T21:27:06.859Z,43.93
2019-05-20T21:29:35.690Z,45.87
2019-05-20T21:32:07.498Z,42.90
2019-05-20T21:34:36.425Z,41.07
2019-05-20T21:37:05.417Z,42.50
2019-05-20T21:39:34.425Z,43.77
2019-05-20T21:42:03.410Z,40.53
2019-05-20T21:44:35.449Z,40.17
2019-05-20T21:47:04.375Z,38.03
2019-05-20T21:49:33.321Z,39.43
2019-05-20T21:52:02.292Z,40.60
2019-05-20T21:54:31.272Z,37.43
2019-05-20T21:57:00.148Z,34.73
2019-05-20T21:59:29.125Z,38.57
2019-05-20T22:01:58.081Z,32.50
2019-05-20T22:04:27.068Z,35.23
2019-05-20T22:06:56.366Z,31.70
2019-05-20T22:09:26.309Z,31.57
2019-05-20T22:11:55.294Z,32.27
2019-05-20T22:14:24.317Z,33.13
2019-05-20T22:16:53.505Z,32.80
2019-05-20T22:19:22.485Z,34.20
2019-05-20T22:22:00.183Z,35.17
2019-05-20T22:24:29.188Z,35.00
2019-05-20T22:26:58.134Z,32.83
2019-05-20T22:29:27.078Z,34.07
2019-05-20T22:32:14.713Z,33.10
2019-05-20T22:34:53.172Z,34.53
2019-05-20T22:37:14.417Z,32.67
2019-05-20T22:39:43.362Z,30.87
2019-05-20T22:42:12.291Z,32.60
2019-05-20T22:44:41.242Z,33.53
2019-05-20T22:47:10.234Z,31.70
2019-05-20T22:49:39.161Z,31.20
2019-05-20T22:52:08.145Z,31.93
2019-05-20T22:54:37.083Z,31.00
2019-05-20T22:57:06.058Z,28.83
2019-05-20T22:59:34.989Z,29.20
2019-05-20T23:02:04.081Z,27.40
2019-05-20T23:05:06.411Z,27.17
2019-05-20T23:07:35.417Z,26.23
2019-05-20T23:10:04.829Z,24.27
2019-05-20T23:12:33.749Z,22.17
2019-05-20T23:15:02.868Z,19.67
2019-05-20T23:17:31.718Z,17.77
2019-05-20T23:20:00.621Z,15.03
2019-05-20T23:22:29.592Z,14.80
2019-05-20T23:24:58.515Z,15.43
2019-05-20T23:27:27.390Z,13.30
2019-05-20T23:29:56.436Z,12.87
2019-05-20T23:32:25.338Z,11.73
2019-05-20T23:34:54.282Z,13.10
2019-05-20T23:37:23.225Z,11.30
2019-05-20T23:39:52.305Z,13.03
2019-05-20T23:42:21.321Z,11.30
2019-05-20T23:44:50.269Z,11.90
2019-05-20T23:47:19.231Z,10.77
2019-05-20T23:49:48.219Z,11.83
2019-05-20T23:52:17.113Z,11.40
2019-05-20T23:54:46.001Z,12.90
2019-05-20T23:57:14.997Z,11.07
2019-05-20T23:59:43.897Z,10.93
